Time;durP1;ratioP1;P1;durP2;ratioP2;P2;SDS_P1;SDS_P2;PMS_P1;PMS_P2;Temp;Humidity;BMP_temperature;BMP_pressure;BME280_temperature;BME280_humidity;BME280_pressure;Samples;Min_cycle;Max_cycle;Signal;HPM_P1;HPM_P2
2021/07/25 00:01:20;;;;;;;15.40;5.78;;;;;;;18.09;75.16;99206.31;4976859;28;20078;-67
2021/07/25 00:04:07;;;;;;;10.32;5.32;;;;;;;18.08;75.27;99201.97;4977426;28;20062;-67
2021/07/25 00:06:54;;;;;;;13.00;5.95;;;;;;;18.08;75.19;99206.38;4963058;28;20573;-67
2021/07/25 00:09:45;;;;;;;10.00;5.78;;;;;;;18.07;75.28;99210.72;4963078;28;20050;-67
2021/07/25 00:12:30;;;;;;;16.60;5.18;;;;;;;18.07;75.11;99213.34;4962538;28;20054;-67
2021/07/25 00:15:19;;;;;;;14.90;6.80;;;;;;;18.06;75.01;99206.38;4962902;28;20050;-68
2021/07/25 00:18:06;;;;;;;12.40;5.93;;;;;;;18.06;75.27;99208.16;4962916;28;20057;-67
2021/07/25 00:20:53;;;;;;;9.73;5.00;;;;;;;18.04;75.06;99194.22;4977556;28;20070;-68
2021/07/25 00:23:45;;;;;;;9.55;5.40;;;;;;;18.04;75.02;99192.50;4962787;28;20514;-68
2021/07/25 00:26:45;;;;;;;11.68;4.93;;;;;;;18.04;74.94;99194.22;4977047;28;20050;-67
2021/07/25 00:29:32;;;;;;;10.68;5.88;;;;;;;18.04;74.91;99194.22;4976612;28;20053;-68
2021/07/25 00:32:16;;;;;;;15.40;5.47;;;;;;;18.02;74.93;99191.66;4962410;28;20093;-68
2021/07/25 00:35:02;;;;;;;11.20;5.03;;;;;;;18.01;75.11;99189.06;4962543;28;20560;-67
2021/07/25 00:37:52;;;;;;;22.08;5.53;;;;;;;18.01;75.00;99189.94;4962616;28;20093;-68
2021/07/25 00:40:44;;;;;;;12.65;5.30;;;;;;;17.99;74.67;99185.63;4961879;28;20466;-67
2021/07/25 00:43:34;;;;;;;5.80;4.60;;;;;;;17.99;74.68;99180.38;4962396;28;20097;-68
2021/07/25 00:46:25;;;;;;;12.60;5.80;;;;;;;17.97;74.80;99175.16;4977049;28;20185;-69
2021/07/25 00:49:12;;;;;;;11.60;5.63;;;;;;;17.99;75.00;99175.16;4976863;28;20049;-68
2021/07/25 00:52:04;;;;;;;10.00;5.25;;;;;;;17.96;74.86;99173.44;4962281;28;20101;-67
2021/07/25 00:54:48;;;;;;;9.15;4.78;;;;;;;17.97;75.06;99177.78;4962331;28;20137;-67
2021/07/25 00:57:38;;;;;;;8.55;4.97;;;;;;;17.96;75.03;99176.94;4976139;28;20049;-68
2021/07/25 01:00:24;;;;;;;8.18;5.07;;;;;;;17.94;75.08;99173.50;4961820;28;20041;-67
2021/07/25 01:03:21;;;;;;;10.82;5.22;;;;;;;17.95;74.78;99184.84;4961904;28;20132;-68
2021/07/25 01:06:23;;;;;;;11.52;5.07;;;;;;;17.94;74.89;99175.25;4976360;28;20553;-68
2021/07/25 01:09:35;;;;;;;11.23;5.15;;;;;;;17.92;74.84;99172.69;4961492;28;20124;-67
2021/07/25 01:12:43;;;;;;;11.85;5.82;;;;;;;17.92;74.88;99172.69;4976367;28;20041;-68
2021/07/25 01:15:34;;;;;;;13.27;5.63;;;;;;;17.91;75.09;99177.94;4976448;28;20050;-67
2021/07/25 01:18:21;;;;;;;6.82;5.05;;;;;;;17.92;74.77;99174.44;4961314;28;20045;-68
2021/07/25 01:21:10;;;;;;;10.93;5.47;;;;;;;17.91;74.81;99178.81;4961491;28;20054;-68
2021/07/25 01:23:59;;;;;;;14.93;5.78;;;;;;;17.91;75.23;99172.72;4961531;28;20049;-67
2021/07/25 01:26:46;;;;;;;8.70;5.00;;;;;;;17.90;74.78;99174.47;4975778;28;20085;-68
2021/07/25 01:29:43;;;;;;;18.65;6.22;;;;;;;17.91;74.97;99176.19;4961300;28;20049;-67
2021/07/25 01:32:34;;;;;;;13.68;5.45;;;;;;;17.90;74.98;99169.25;4961508;28;20130;-68
2021/07/25 01:35:21;;;;;;;10.43;5.57;;;;;;;17.90;75.04;99177.09;4976081;28;20114;-68
2021/07/25 01:38:11;;;;;;;12.95;5.22;;;;;;;17.91;74.99;99184.06;4976139;28;20049;-68
2021/07/25 01:41:09;;;;;;;14.45;5.43;;;;;;;17.90;74.92;99184.13;4975582;28;20050;-68
2021/07/25 01:43:56;;;;;;;13.57;5.65;;;;;;;17.91;74.91;99185.81;4975481;28;20105;-68
2021/07/25 01:46:45;;;;;;;8.70;5.22;;;;;;;17.90;74.85;99178.88;4961227;28;20105;-68
2021/07/25 01:49:34;;;;;;;12.45;5.93;;;;;;;17.90;75.19;99187.59;4960947;28;20418;-67
2021/07/25 01:52:24;;;;;;;15.30;5.68;;;;;;;17.90;75.12;99176.25;4975418;28;20105;-68
2021/07/25 01:55:09;;;;;;;9.07;5.75;;;;;;;17.89;75.13;99172.75;4975585;28;20093;-68
2021/07/25 01:57:56;;;;;;;8.98;4.80;;;;;;;17.90;75.09;99171.00;4960911;28;20061;-67
2021/07/25 02:00:40;;;;;;;12.68;5.20;;;;;;;17.90;74.99;99171.00;4961004;28;20097;-68
2021/07/25 02:03:31;;;;;;;17.55;6.07;;;;;;;17.89;75.19;99175.38;4960600;28;20081;-67
2021/07/25 02:06:18;;;;;;;11.10;6.20;;;;;;;17.89;75.17;99169.28;4975127;28;20105;-67
2021/07/25 02:09:08;;;;;;;13.52;6.07;;;;;;;17.88;75.10;99162.34;4975403;28;20061;-68
2021/07/25 02:11:55;;;;;;;12.52;5.40;;;;;;;17.87;74.93;99169.31;4975139;28;20411;-67
2021/07/25 02:14:47;;;;;;;11.63;6.50;;;;;;;17.88;75.27;99164.94;4974960;28;20528;-67
2021/07/25 02:17:37;;;;;;;12.45;5.65;;;;;;;17.86;75.00;99164.97;4960597;28;20637;-68
2021/07/25 02:20:27;;;;;;;9.18;6.18;;;;;;;17.84;75.06;99163.31;4975145;28;20129;-68
2021/07/25 02:23:11;;;;;;;13.02;6.35;;;;;;;17.83;75.18;99159.81;4974925;28;20145;-66
2021/07/25 02:25:55;;;;;;;12.48;6.57;;;;;;;17.81;75.02;99161.66;4975313;28;20135;-67
2021/07/25 02:28:42;;;;;;;10.43;6.63;;;;;;;17.80;75.00;99152.91;4960692;28;20054;-68
2021/07/25 02:31:29;;;;;;;14.20;6.93;;;;;;;17.80;75.01;99146.81;4960202;28;20046;-69
2021/07/25 02:34:18;;;;;;;17.38;6.97;;;;;;;17.80;75.09;99149.44;4960329;28;20426;-67
2021/07/25 02:37:11;;;;;;;11.63;6.40;;;;;;;17.78;74.94;99154.72;4960667;28;20146;-67
2021/07/25 02:39:57;;;;;;;13.98;7.07;;;;;;;17.77;75.17;99144.28;4974690;28;20054;-67
2021/07/25 02:42:44;;;;;;;14.93;7.45;;;;;;;17.76;74.92;99139.94;4960140;28;20121;-67
2021/07/25 02:45:36;;;;;;;20.17;6.95;;;;;;;17.75;74.86;99131.19;4974683;28;20097;-67
2021/07/25 02:48:23;;;;;;;12.85;7.40;;;;;;;17.73;74.93;99132.16;4974283;28;20065;-69
2021/07/25 02:51:12;;;;;;;18.15;6.95;;;;;;;17.72;74.81;99131.31;4974998;28;20572;-67
2021/07/25 02:54:01;;;;;;;17.70;7.53;;;;;;;17.74;75.01;99137.38;4974593;28;20054;-68
2021/07/25 02:56:51;;;;;;;18.27;7.10;;;;;;;17.74;74.89;99139.13;4974503;28;20109;-68
2021/07/25 02:59:40;;;;;;;17.23;7.05;;;;;;;17.75;75.10;99146.09;4960135;28;20077;-67
2021/07/25 03:02:27;;;;;;;19.63;7.68;;;;;;;17.74;74.92;99142.63;4976064;28;20121;-67
2021/07/25 03:05:13;;;;;;;12.50;7.65;;;;;;;17.74;74.94;99144.38;4978962;28;20057;-67
2021/07/25 03:08:06;;;;;;;16.13;7.18;;;;;;;17.73;75.09;99145.25;4964099;28;20190;-67
2021/07/25 03:10:50;;;;;;;19.40;6.85;;;;;;;17.72;75.16;99147.03;4964070;28;20065;-67
2021/07/25 03:13:37;;;;;;;13.70;6.78;;;;;;;17.72;75.33;99141.78;4978468;28;20101;-67
2021/07/25 03:16:26;;;;;;;18.33;6.95;;;;;;;17.73;75.11;99156.63;4963868;28;20109;-68
2021/07/25 03:19:12;;;;;;;13.05;6.50;;;;;;;17.73;75.16;99147.88;4977881;28;20097;-68
2021/07/25 03:22:00;;;;;;;14.75;6.20;;;;;;;17.72;75.00;99147.03;4963713;28;20094;-68
2021/07/25 03:24:50;;;;;;;11.77;5.75;;;;;;;17.72;75.15;99147.03;4963574;28;20093;-68
2021/07/25 03:27:36;;;;;;;14.32;6.25;;;;;;;17.71;75.11;99144.44;4977979;28;20154;-68
2021/07/25 03:30:25;;;;;;;11.15;6.50;;;;;;;17.70;74.99;99143.59;4977716;28;20448;-69
2021/07/25 03:33:10;;;;;;;13.02;7.28;;;;;;;17.68;75.02;99148.00;4977926;28;20050;-68
2021/07/25 03:35:54;;;;;;;11.73;6.07;;;;;;;17.68;75.14;99145.41;4977595;28;20109;-68
2021/07/25 03:38:41;;;;;;;20.38;7.28;;;;;;;17.68;75.01;99144.53;4977950;28;20052;-67
2021/07/25 03:41:33;;;;;;;12.20;5.63;;;;;;;17.68;75.12;99149.75;4977511;28;20474;-68
2021/07/25 03:44:20;;;;;;;13.30;6.95;;;;;;;17.65;74.90;99145.47;4962990;28;20089;-68
2021/07/25 03:47:10;;;;;;;12.05;6.57;;;;;;;17.63;75.27;99142.91;4978165;28;20423;-68
2021/07/25 03:49:59;;;;;;;12.65;5.82;;;;;;;17.62;75.17;99138.56;4977887;28;20070;-68
2021/07/25 03:52:49;;;;;;;15.68;6.35;;;;;;;17.61;74.87;99144.72;4977849;28;20097;-69
2021/07/25 03:55:34;;;;;;;19.08;6.75;;;;;;;17.62;75.09;99137.69;4963157;28;20097;-68
2021/07/25 03:58:21;;;;;;;15.00;5.95;;;;;;;17.61;74.98;99134.22;4977573;28;20054;-67
2021/07/25 04:01:08;;;;;;;10.15;6.07;;;;;;;17.61;75.04;99139.47;4963201;28;20041;-68
2021/07/25 04:03:55;;;;;;;17.85;6.05;;;;;;;17.61;75.09;99129.00;4977432;28;20077;-68
2021/07/25 04:06:44;;;;;;;16.50;5.95;;;;;;;17.60;75.07;99137.75;4977068;28;20049;-69
2021/07/25 04:09:34;;;;;;;14.35;5.80;;;;;;;17.60;75.06;99137.75;4963102;28;20045;-68
2021/07/25 04:12:26;;;;;;;12.85;5.85;;;;;;;17.59;75.04;99141.25;4977653;28;20054;-69
2021/07/25 04:15:17;;;;;;;19.30;6.78;;;;;;;17.59;75.00;99143.88;4975983;28;20089;-68
2021/07/25 04:18:01;;;;;;;19.48;6.82;;;;;;;17.58;75.10;99143.94;4962899;28;20463;-69
2021/07/25 04:20:45;;;;;;;12.93;6.68;;;;;;;17.56;75.17;99140.50;4963119;28;20102;-68
2021/07/25 04:23:37;;;;;;;14.18;5.90;;;;;;;17.55;75.06;99142.25;4977555;28;20053;-69
2021/07/25 04:26:24;;;;;;;16.38;5.93;;;;;;;17.54;75.03;99144.91;4962325;28;20417;-69
2021/07/25 04:29:13;;;;;;;13.85;5.82;;;;;;;17.53;75.31;99136.19;4962664;28;20049;-66
2021/07/25 04:32:03;;;;;;;13.77;5.30;;;;;;;17.53;74.88;99144.03;4976975;28;20042;-69
2021/07/25 04:34:52;;;;;;;16.83;5.93;;;;;;;17.54;75.01;99144.91;4977052;28;20473;-70
2021/07/25 04:37:48;;;;;;;11.50;5.93;;;;;;;17.53;75.18;99143.19;4976658;28;20054;-69
2021/07/25 04:40:36;;;;;;;7.43;5.47;;;;;;;17.53;75.14;99146.66;4976822;28;20089;-67
2021/07/25 04:43:21;;;;;;;11.07;5.50;;;;;;;17.55;75.12;99139.63;4976958;28;20113;-67
2021/07/25 04:46:39;;;;;;;9.90;5.72;;;;;;;17.56;75.08;99150.97;4976882;28;20121;-68
2021/07/25 04:49:37;;;;;;;11.00;5.43;;;;;;;17.55;75.11;99155.34;4976849;28;21126;-68
2021/07/25 04:52:29;;;;;;;11.90;5.47;;;;;;;17.55;75.15;99152.72;4976606;28;20053;-67
2021/07/25 04:55:20;;;;;;;10.40;5.82;;;;;;;17.57;75.18;99153.53;4961835;28;20046;-68
2021/07/25 04:58:11;;;;;;;12.23;5.22;;;;;;;17.58;75.19;99155.25;4976316;28;20062;-68
2021/07/25 05:00:59;;;;;;;13.23;6.05;;;;;;;17.57;74.89;99168.41;4961997;28;20049;-68
2021/07/25 05:03:46;;;;;;;11.63;5.68;;;;;;;17.57;75.08;99156.16;4961548;28;20057;-68
2021/07/25 05:06:33;;;;;;;11.65;5.15;;;;;;;17.58;75.17;99157.88;4976325;28;20053;-68
2021/07/25 05:09:23;;;;;;;15.40;5.55;;;;;;;17.59;75.30;99162.22;4961647;28;20084;-69
2021/07/25 05:12:10;;;;;;;11.15;5.35;;;;;;;17.60;75.10;99158.69;4961844;28;20097;-67
2021/07/25 05:15:45;;;;;;;13.48;5.35;;;;;;;17.60;75.22;99163.94;4961616;28;20050;-68
2021/07/25 05:18:38;;;;;;;10.18;5.40;;;;;;;17.60;75.24;99160.44;4975765;28;20045;-67
2021/07/25 05:21:29;;;;;;;13.30;6.03;;;;;;;17.60;75.30;99161.31;4976118;28;20116;-69
2021/07/25 05:24:17;;;;;;;12.23;6.15;;;;;;;17.63;75.29;99163.00;4976257;28;20506;-68
2021/07/25 05:27:03;;;;;;;9.07;4.70;;;;;;;17.63;75.46;99158.63;4961385;28;20105;-67
2021/07/25 05:29:51;;;;;;;9.43;4.90;;;;;;;17.64;75.46;99164.72;4961648;28;20053;-67
2021/07/25 05:32:40;;;;;;;12.50;5.45;;;;;;;17.66;75.47;99162.91;4976107;28;20121;-69
2021/07/25 05:35:29;;;;;;;8.80;4.97;;;;;;;17.66;75.39;99157.69;4961565;28;20049;-67
2021/07/25 05:38:19;;;;;;;13.18;4.80;;;;;;;17.68;75.55;99155.88;4961371;28;20049;-68
2021/07/25 05:41:11;;;;;;;8.60;4.57;;;;;;;17.69;75.30;99161.97;4976044;28;20122;-68
2021/07/25 05:44:04;;;;;;;5.63;4.20;;;;;;;17.69;75.44;99154.97;4961123;28;20062;-67
2021/07/25 05:46:50;;;;;;;10.38;4.55;;;;;;;17.70;75.54;99156.69;4961083;28;20111;-68
2021/07/25 05:49:34;;;;;;;6.82;4.88;;;;;;;17.72;75.50;99154.91;4975673;28;20121;-68
2021/07/25 05:52:24;;;;;;;7.85;5.03;;;;;;;17.71;75.52;99152.31;4975466;28;20050;-69
2021/07/25 05:55:09;;;;;;;8.35;5.05;;;;;;;17.73;75.54;99155.75;4975712;28;20049;-66
2021/07/25 05:57:55;;;;;;;8.90;4.53;;;;;;;17.73;75.64;99153.13;4960835;28;20052;-68
2021/07/25 06:00:40;;;;;;;8.07;4.90;;;;;;;17.75;75.64;99151.31;4975175;28;20053;-67
2021/07/25 06:03:29;;;;;;;7.18;4.57;;;;;;;17.74;75.71;99144.38;4975614;28;20462;-68
2021/07/25 06:06:21;;;;;;;8.27;4.10;;;;;;;17.74;75.45;99144.38;4960914;28;20109;-68
2021/07/25 06:09:16;;;;;;;11.50;5.10;;;;;;;17.76;75.72;99148.66;4975136;28;20529;-68
2021/07/25 06:12:03;;;;;;;11.55;5.03;;;;;;;17.77;75.52;99144.28;4974766;28;20049;-68
2021/07/25 06:14:47;;;;;;;7.13;4.95;;;;;;;17.78;75.66;99143.38;4974717;28;20046;-68
2021/07/25 06:17:34;;;;;;;9.45;4.82;;;;;;;17.79;75.50;99143.31;4960681;28;20057;-69
2021/07/25 06:20:21;;;;;;;10.65;4.68;;;;;;;17.80;75.68;99145.06;4975293;28;20490;-68
2021/07/25 06:23:06;;;;;;;6.07;3.83;;;;;;;17.80;75.49;99139.81;4975398;28;20042;-67
2021/07/25 06:25:50;;;;;;;;;;;;;;;17.81;75.54;99145.94;4975006;28;20053;-67
2021/07/25 06:28:36;;;;;;;9.90;4.70;;;;;;;17.81;75.51;99145.94;4960123;28;20428;-68
2021/07/25 06:31:26;;;;;;;7.70;4.95;;;;;;;17.82;75.72;99142.41;4975022;28;20109;-68
2021/07/25 06:34:09;;;;;;;8.23;4.45;;;;;;;17.83;75.80;99136.22;4960313;28;20046;-67
2021/07/25 06:36:59;;;;;;;6.72;5.05;;;;;;;17.85;75.83;99147.53;4973746;28;20442;-68
2021/07/25 06:39:43;;;;;;;7.28;3.92;;;;;;;17.86;75.73;99146.63;4960086;28;20057;-68
2021/07/25 06:42:27;;;;;;;5.85;4.25;;;;;;;17.88;75.93;99150.06;4974791;28;20117;-68
2021/07/25 06:45:14;;;;;;;6.93;4.15;;;;;;;17.89;75.72;99149.16;4974880;28;20046;-69
2021/07/25 06:48:01;;;;;;;10.65;3.97;;;;;;;17.90;75.70;99161.38;4960351;28;20054;-68
2021/07/25 06:50:52;;;;;;;9.90;4.45;;;;;;;17.92;75.74;99158.69;4974776;28;20054;-69
2021/07/25 06:53:45;;;;;;;8.63;3.70;;;;;;;17.93;75.73;99152.56;4959883;28;20514;-68
2021/07/25 06:56:40;;;;;;;6.80;4.05;;;;;;;17.96;75.71;99149.84;4974482;28;20093;-69
2021/07/25 06:59:30;;;;;;;6.43;4.35;;;;;;;17.96;75.79;99155.97;4974706;28;20053;-68
2021/07/25 07:02:19;;;;;;;9.00;4.07;;;;;;;17.98;75.78;99150.72;4959394;28;20057;-70
2021/07/25 07:05:07;;;;;;;8.45;4.50;;;;;;;18.01;76.03;99160.22;4959720;28;20062;-69
2021/07/25 07:07:57;;;;;;;8.38;4.18;;;;;;;18.02;75.74;99154.97;4960251;28;20050;-69
2021/07/25 07:10:46;;;;;;;7.18;4.00;;;;;;;18.04;75.60;99158.41;4960162;28;20065;-68
2021/07/25 07:13:38;;;;;;;7.30;3.90;;;;;;;18.06;75.82;99147.88;4959972;28;20049;-68
2021/07/25 07:16:29;;;;;;;6.43;3.88;;;;;;;18.08;75.70;99156.53;4974509;28;20093;-67
2021/07/25 07:19:19;;;;;;;7.72;3.65;;;;;;;18.09;75.86;99155.66;4960173;28;20054;-70
2021/07/25 07:22:06;;;;;;;4.68;3.63;;;;;;;18.10;75.68;99162.59;4974034;28;20121;-70
2021/07/25 07:24:54;;;;;;;6.20;4.22;;;;;;;18.11;75.60;99159.94;4959951;28;20046;-70
2021/07/25 07:27:38;;;;;;;5.95;4.30;;;;;;;18.13;75.66;99166.91;4974491;28;20115;-68
2021/07/25 07:30:25;;;;;;;7.38;4.20;;;;;;;18.14;75.72;99166.84;4974631;28;20470;-68
2021/07/25 07:33:20;;;;;;;7.03;4.10;;;;;;;18.16;75.71;99166.81;4974531;28;20041;-68
2021/07/25 07:36:09;;;;;;;6.82;3.67;;;;;;;18.16;75.66;99172.91;4974339;28;20419;-68
2021/07/25 07:38:56;;;;;;;5.55;3.50;;;;;;;18.18;75.61;99171.09;4960193;28;20066;-69
2021/07/25 07:41:45;;;;;;;4.90;3.85;;;;;;;18.20;75.26;99169.28;4974316;28;20054;-69
2021/07/25 07:44:30;;;;;;;6.75;3.75;;;;;;;18.22;75.58;99177.09;4959539;28;20182;-69
2021/07/25 07:47:19;;;;;;;7.60;3.58;;;;;;;18.24;75.62;99170.94;4973977;28;20050;-69
2021/07/25 07:50:04;;;;;;;7.38;4.63;;;;;;;18.26;75.67;99177.00;4963247;28;20109;-69
2021/07/25 07:52:54;;;;;;;6.30;3.92;;;;;;;18.29;75.50;99175.19;4977569;28;20045;-68
2021/07/25 07:55:43;;;;;;;8.98;4.00;;;;;;;18.32;75.60;99177.69;4977929;28;20078;-68
2021/07/25 07:58:30;;;;;;;7.70;4.00;;;;;;;18.33;75.58;99179.41;4977352;28;20105;-68
2021/07/25 08:01:16;;;;;;;7.68;4.45;;;;;;;18.36;75.52;99181.94;4962816;28;20125;-68
2021/07/25 08:04:03;;;;;;;8.85;4.55;;;;;;;18.38;75.96;99188.84;4977900;28;20070;-67
2021/07/25 08:06:47;;;;;;;5.78;4.35;;;;;;;18.39;75.56;99187.13;4977778;28;20115;-69
2021/07/25 08:09:41;;;;;;;9.38;3.85;;;;;;;18.40;75.51;99181.81;4962750;28;20054;-69
2021/07/25 08:12:28;;;;;;;7.75;4.60;;;;;;;18.42;75.62;99195.75;4962944;28;20580;-68
2021/07/25 08:15:13;;;;;;;6.35;4.15;;;;;;;18.43;75.56;99194.00;4977767;28;20052;-69
2021/07/25 08:17:57;;;;;;;7.38;3.97;;;;;;;18.45;75.83;99189.53;4962644;28;20093;-69
2021/07/25 08:20:44;;;;;;;7.65;4.10;;;;;;;18.49;75.59;99196.41;4962981;28;20128;-69
2021/07/25 08:23:31;;;;;;;9.25;4.25;;;;;;;18.50;75.66;99187.63;4977252;28;20054;-68
2021/07/25 08:26:18;;;;;;;5.05;4.20;;;;;;;18.52;75.60;99191.09;4977462;28;20081;-69
2021/07/25 08:29:10;;;;;;;6.80;4.00;;;;;;;18.53;75.17;99195.44;4962475;28;20077;-68
2021/07/25 08:32:00;;;;;;;8.02;3.95;;;;;;;18.55;75.45;99191.00;4962619;28;20513;-69
2021/07/25 08:34:52;;;;;;;8.20;4.38;;;;;;;18.58;75.53;99190.03;4976814;28;20049;-69
2021/07/25 08:37:36;;;;;;;8.40;4.85;;;;;;;18.61;75.50;99195.19;4962277;28;20050;-69
2021/07/25 08:40:22;;;;;;;8.07;4.18;;;;;;;18.65;75.52;99191.56;4962366;28;20050;-67
2021/07/25 08:43:11;;;;;;;7.18;4.40;;;;;;;18.68;75.48;99190.59;4962604;28;20057;-68
2021/07/25 08:46:07;;;;;;;9.10;4.10;;;;;;;18.70;75.13;99189.66;4962476;28;20182;-68
2021/07/25 08:48:58;;;;;;;7.75;3.92;;;;;;;18.72;75.50;99190.47;4976875;28;20454;-68
2021/07/25 08:51:58;;;;;;;9.85;4.45;;;;;;;18.75;75.15;99192.16;4962405;28;20553;-68
2021/07/25 08:54:47;;;;;;;9.55;4.35;;;;;;;18.75;75.37;99192.16;4976991;28;20127;-69
2021/07/25 08:57:39;;;;;;;8.27;4.00;;;;;;;18.77;75.03;99198.19;4976900;28;20134;-68
2021/07/25 09:00:35;;;;;;;19.85;4.40;;;;;;;18.78;75.29;99189.41;4961022;28;20137;-68
2021/07/25 09:03:27;;;;;;;6.57;3.28;;;;;;;18.81;75.23;99191.09;4976614;28;20061;-69
2021/07/25 09:06:17;;;;;;;7.78;4.10;;;;;;;18.84;75.08;99193.63;4962120;28;20541;-68
2021/07/25 09:09:02;;;;;;;5.68;3.88;;;;;;;18.86;75.15;99194.41;4976367;28;20045;-68
2021/07/25 09:11:47;;;;;;;7.50;4.15;;;;;;;18.87;75.15;99196.13;4961626;28;20517;-67
2021/07/25 09:14:39;;;;;;;7.13;3.75;;;;;;;18.90;74.97;99189.94;4961450;28;20045;-70
2021/07/25 09:17:31;;;;;;;10.38;4.03;;;;;;;18.92;74.88;99194.22;4961947;28;20053;-66
2021/07/25 09:20:21;;;;;;;8.07;3.90;;;;;;;18.96;75.12;99195.88;4976065;28;20514;-67
2021/07/25 09:23:20;;;;;;;7.55;4.00;;;;;;;18.99;74.86;99187.94;4961748;28;20074;-67
2021/07/25 09:26:15;;;;;;;9.30;5.13;;;;;;;19.01;74.83;99187.84;4976025;28;20058;-67
2021/07/25 09:29:21;;;;;;;5.60;3.65;;;;;;;19.03;74.77;99186.03;4961274;28;20110;-67
2021/07/25 09:32:14;;;;;;;6.93;3.47;;;;;;;19.05;74.76;99180.72;4975503;28;20441;-68
2021/07/25 09:34:58;;;;;;;10.10;4.07;;;;;;;19.06;74.71;99191.22;4961234;28;20541;-69
2021/07/25 09:37:42;;;;;;;7.60;3.58;;;;;;;19.09;74.65;99179.72;4961479;28;20058;-67
2021/07/25 09:40:34;;;;;;;5.93;3.28;;;;;;;19.09;74.78;99183.19;4961593;28;20046;-66
2021/07/25 09:43:23;;;;;;;5.82;3.60;;;;;;;19.11;74.72;99193.69;4961465;28;20057;-69
2021/07/25 09:46:16;;;;;;;6.07;3.33;;;;;;;19.11;74.69;99191.06;4960851;28;20093;-69
2021/07/25 09:49:03;;;;;;;9.38;4.65;;;;;;;19.08;74.71;99184.09;4960851;28;20569;-67
2021/07/25 09:51:53;;;;;;;4.72;3.70;;;;;;;19.08;74.62;99188.53;4975359;28;20533;-67
2021/07/25 09:54:40;;;;;;;4.93;3.70;;;;;;;19.08;74.61;99183.25;4975045;28;20533;-68
2021/07/25 09:57:31;;;;;;;7.93;3.67;;;;;;;19.07;74.51;99185.03;4975544;28;20138;-68
2021/07/25 10:00:16;;;;;;;5.82;2.85;;;;;;;19.13;74.64;99189.22;4960624;28;20600;-68
2021/07/25 10:03:02;;;;;;;;;;;;;;;19.14;74.58;99176.03;4975905;28;20097;-69
2021/07/25 10:05:51;;;;;;;10.77;3.22;;;;;;;19.17;74.28;99177.69;4975191;28;19925;-68
2021/07/25 10:08:35;;;;;;;4.93;3.47;;;;;;;19.22;74.27;99177.56;4975635;28;20104;-67
2021/07/25 10:11:22;;;;;;;7.55;3.35;;;;;;;19.25;74.17;99175.69;4961361;28;20109;-68
2021/07/25 10:14:21;;;;;;;5.25;3.65;;;;;;;19.29;74.22;99177.31;4960672;28;20093;-71
2021/07/25 10:17:13;;;;;;;7.10;3.38;;;;;;;19.32;74.02;99176.34;4960188;28;20050;-69
2021/07/25 10:20:07;;;;;;;5.03;2.60;;;;;;;19.32;73.62;99171.94;4960581;28;20557;-70
2021/07/25 10:22:53;;;;;;;6.95;3.30;;;;;;;19.35;73.73;99170.13;4974775;28;20093;-69
2021/07/25 10:25:41;;;;;;;7.25;3.10;;;;;;;19.37;73.68;99173.53;4975241;28;20046;-69
2021/07/25 10:28:39;;;;;;;4.78;2.65;;;;;;;19.38;73.57;99180.53;4974939;28;20054;-70
2021/07/25 10:31:25;;;;;;;5.18;2.72;;;;;;;19.40;73.42;99174.28;4975301;28;20054;-68
2021/07/25 10:34:11;;;;;;;5.35;2.95;;;;;;;19.43;73.72;99173.34;4974433;28;20050;-69
2021/07/25 10:37:04;;;;;;;9.25;3.10;;;;;;;19.45;73.62;99172.38;4960600;28;20435;-69
2021/07/25 10:39:50;;;;;;;6.32;2.55;;;;;;;19.45;73.31;99171.53;4959880;28;20062;-69
2021/07/25 10:42:55;;;;;;;6.40;2.92;;;;;;;19.44;73.60;99164.56;4974557;28;20061;-69
2021/07/25 10:45:39;;;;;;;6.43;2.75;;;;;;;19.46;73.19;99170.63;4960456;28;20078;-70
2021/07/25 10:48:26;;;;;;;5.93;3.58;;;;;;;19.46;73.27;99166.22;4960113;28;20114;-69
2021/07/25 10:51:13;;;;;;;4.40;2.65;;;;;;;19.45;73.65;99163.66;4974608;28;20409;-69
2021/07/25 10:54:19;;;;;;;6.25;3.05;;;;;;;19.41;73.27;99169.91;4974434;28;20054;-70
2021/07/25 10:57:10;;;;;;;9.10;3.50;;;;;;;19.38;73.08;99163.00;4974762;28;20093;-69
2021/07/25 10:59:55;;;;;;;5.00;2.80;;;;;;;19.39;73.04;99162.06;4974981;28;20054;-69
2021/07/25 11:02:39;;;;;;;4.45;2.83;;;;;;;19.39;73.18;99164.69;4974434;28;20061;-68
2021/07/25 11:05:25;;;;;;;3.90;2.65;;;;;;;19.38;73.16;99159.50;4974641;28;20089;-68
2021/07/25 11:08:32;;;;;;;5.18;2.58;;;;;;;19.36;73.13;99162.19;4974632;28;20070;-68
2021/07/25 11:11:34;;;;;;;3.88;2.63;;;;;;;19.36;73.08;99164.81;4959780;28;20146;-70
2021/07/25 11:14:55;;;;;;;5.20;2.67;;;;;;;19.38;72.86;99151.63;4959391;28;20050;-68
2021/07/25 11:17:48;;;;;;;4.68;2.35;;;;;;;19.42;72.89;99150.63;4974036;28;20470;-69
2021/07/25 11:20:40;;;;;;;6.28;2.45;;;;;;;19.44;72.88;99151.41;4974564;28;20131;-68
2021/07/25 11:23:24;;;;;;;3.50;2.40;;;;;;;19.46;72.66;99160.97;4975517;28;20042;-70
2021/07/25 11:26:31;;;;;;;4.68;2.60;;;;;;;19.45;72.68;99153.97;4963483;28;20521;-69
2021/07/25 11:29:40;;;;;;;5.43;2.85;;;;;;;19.46;72.79;99158.31;4963577;28;20045;-69
2021/07/25 11:32:41;;;;;;;7.15;3.15;;;;;;;19.49;72.81;99157.34;4975145;28;20138;-70
2021/07/25 11:35:31;;;;;;;4.07;2.75;;;;;;;19.50;72.62;99152.97;4963401;28;20445;-69
2021/07/25 11:38:25;;;;;;;5.13;2.80;;;;;;;19.51;72.47;99159.94;4963121;28;20177;-68
2021/07/25 11:41:23;;;;;;;5.45;3.10;;;;;;;19.50;72.60;99148.56;4963591;28;20204;-69
2021/07/25 11:44:11;;;;;;;4.72;2.70;;;;;;;19.52;72.63;99151.16;4978118;28;20406;-70
2021/07/25 11:47:03;;;;;;;3.60;2.85;;;;;;;19.53;72.38;99158.97;4963595;28;20050;-69
2021/07/25 11:49:58;;;;;;;5.57;3.10;;;;;;;19.55;72.41;99148.41;4963479;28;20122;-68
2021/07/25 11:52:51;;;;;;;3.60;2.72;;;;;;;19.58;72.32;99162.31;4963233;28;20081;-69
2021/07/25 11:55:43;;;;;;;4.63;2.40;;;;;;;19.60;72.10;99155.22;4963115;28;20053;-68
2021/07/25 11:58:36;;;;;;;6.55;2.47;;;;;;;19.60;71.96;99151.72;4963235;28;20049;-69
2021/07/25 12:01:28;;;;;;;5.18;2.67;;;;;;;19.60;71.89;99164.88;4962954;28;20089;-68
2021/07/25 12:04:31;;;;;;;5.18;3.15;;;;;;;19.60;72.05;99154.34;4962532;28;20130;-69
2021/07/25 12:07:20;;;;;;;4.57;2.28;;;;;;;19.62;71.68;99157.78;4963049;28;20115;-68
2021/07/25 12:10:05;;;;;;;3.72;2.67;;;;;;;19.63;71.72;99152.47;4977857;28;20565;-70
2021/07/25 12:12:48;;;;;;;5.35;2.50;;;;;;;19.66;71.65;99153.28;4962908;28;20062;-69
2021/07/25 12:15:40;;;;;;;5.88;3.53;;;;;;;19.67;71.67;99155.88;4963154;28;20105;-68
2021/07/25 12:18:36;;;;;;;4.85;3.05;;;;;;;19.68;71.57;99152.34;4977712;28;20070;-68
2021/07/25 12:21:32;;;;;;;4.97;2.53;;;;;;;19.71;71.35;99138.22;4962659;28;20134;-69
2021/07/25 12:24:27;;;;;;;3.67;2.83;;;;;;;19.71;71.46;99149.56;4962815;28;20521;-66
2021/07/25 12:27:31;;;;;;;4.20;2.88;;;;;;;19.73;71.33;99144.28;4977297;28;20061;-69
2021/07/25 12:30:24;;;;;;;3.78;2.30;;;;;;;19.72;70.96;99150.44;4976820;28;20469;-69
2021/07/25 12:33:21;;;;;;;3.17;2.40;;;;;;;19.72;71.07;99151.28;4976800;28;20142;-68
2021/07/25 12:36:13;;;;;;;6.15;2.63;;;;;;;19.74;71.11;99143.38;4975601;28;20049;-68
2021/07/25 12:38:59;;;;;;;4.45;2.75;;;;;;;19.76;70.93;99145.00;4962501;28;20046;-69
2021/07/25 12:41:45;;;;;;;4.38;2.60;;;;;;;19.76;70.77;99139.75;4976443;28;20053;-68
2021/07/25 12:44:34;;;;;;;4.28;2.50;;;;;;;19.79;70.96;99138.78;4976987;28;20050;-71
2021/07/25 12:47:29;;;;;;;3.33;2.33;;;;;;;19.78;70.74;99139.69;4976974;28;20108;-68
2021/07/25 12:50:39;;;;;;;4.95;2.40;;;;;;;19.78;70.52;99131.81;4976586;28;20162;-68
2021/07/25 12:53:31;;;;;;;6.45;2.55;;;;;;;19.78;70.87;99137.94;4976416;28;20125;-70
2021/07/25 12:56:17;;;;;;;5.18;2.60;;;;;;;19.80;70.37;99131.75;4976671;28;20050;-69
2021/07/25 12:59:07;;;;;;;5.93;2.83;;;;;;;19.76;70.20;99139.75;4961806;28;20053;-69
2021/07/25 13:04:35;;;;;;;3.03;2.20;;;;;;;19.78;70.39;99137.94;4976344;28;20049;-68
2021/07/25 13:07:21;;;;;;;4.18;2.30;;;;;;;19.79;70.45;99136.16;4976551;28;20574;-70
2021/07/25 13:10:09;;;;;;;4.28;2.72;;;;;;;19.78;70.41;99144.94;4961744;28;20042;-69
2021/07/25 13:12:53;;;;;;;4.95;2.95;;;;;;;19.81;70.11;99144.00;4961449;28;20050;-67
2021/07/25 13:15:40;;;;;;;4.35;2.65;;;;;;;19.83;70.11;99148.28;4961808;28;20046;-69
2021/07/25 13:18:24;;;;;;;4.35;2.70;;;;;;;19.83;70.03;99147.44;4961687;28;20158;-69
2021/07/25 13:21:11;;;;;;;;;;;;;;;19.83;70.16;99140.38;4962021;28;20474;-70